Bristow, Indiana
Current Conditions -  °F | °C
As of 11:55 PM on Thursday 30 Oct 2014 (Local Time) from KHNB Reporting Station
Broken Clouds Broken Clouds  
Wind Chill: 45°   Ceiling: 6500
Heat Index: 48°   Visibility: 10mi
Dew Point: 41°   Wind: 7mph
Humidity: 76%   Direction: 90°E
Pressure: 30.04"   Gusts: NA
Location:  38.14°N, 86.72°W
Report Text: KHNB 310455Z AUTO 09006KT 10SM SCT044 BKN065 09/05 A3004 RMK AO1
Loading
Personal Weather Stations






























Interactive Weather Map
Tropical Storm Tracking
New forecast layout! Learn more

10-Day Weather Forecast

Advertisements
Track Severe Weather on mobile